Time;durP1;ratioP1;P1;durP2;ratioP2;P2;SDS_P1;SDS_P2;PMS_P1;PMS_P2;Temp;Humidity;BMP_temperature;BMP_pressure;BME280_temperature;BME280_humidity;BME280_pressure;Samples;Min_cycle;Max_cycle;Signal;HPM_P1;HPM_P2
2022/12/26 00:01:53;;;;;;;1.80;1.70;;;;;;;;;;5049271;28;20242;-66
2022/12/26 00:04:21;;;;;;;1.37;1.23;;;;;;;;;;5050311;28;20212;-66
2022/12/26 00:06:48;;;;;;;1.53;1.43;;;;;;;;;;5043402;28;20212;-66
2022/12/26 00:09:16;;;;;;;1.57;1.17;;;;;;;;;;5041297;28;20260;-66
2022/12/26 00:11:43;;;;;;;1.47;1.43;;;;;;;;;;5044920;28;20231;-66
2022/12/26 00:14:12;;;;;;;4.83;1.53;;;;;;;;;;5044213;28;20219;-66
2022/12/26 00:16:39;;;;;;;2.87;1.80;;;;;;;;;;5031335;28;20212;-67
2022/12/26 00:19:07;;;;;;;2.40;1.63;;;;;;;;;;5031926;28;20212;-66
2022/12/26 00:21:35;;;;;;;1.13;1.10;;;;;;;;;;5030939;28;20216;-66
2022/12/26 00:24:02;;;;;;;1.50;1.40;;;;;;;;;;5035649;28;20197;-67
2022/12/26 00:26:30;;;;;;;1.80;1.50;;;;;;;;;;5036907;28;20262;-66
2022/12/26 00:28:57;;;;;;;1.60;1.50;;;;;;;;;;5049932;28;20363;-66
2022/12/26 00:31:25;;;;;;;1.47;1.37;;;;;;;;;;5039491;28;20794;-67
2022/12/26 00:33:52;;;;;;;1.23;1.13;;;;;;;;;;5049422;28;20554;-67
2022/12/26 00:36:20;;;;;;;1.33;1.23;;;;;;;;;;5044589;28;20212;-67
2022/12/26 00:38:49;;;;;;;1.20;1.20;;;;;;;;;;5032856;28;20259;-67
2022/12/26 00:41:16;;;;;;;2.10;1.37;;;;;;;;;;5039654;28;20263;-66
2022/12/26 00:43:44;;;;;;;2.97;1.23;;;;;;;;;;5036233;28;20208;-67
2022/12/26 00:46:11;;;;;;;3.17;1.30;;;;;;;;;;5043137;28;20265;-67
2022/12/26 00:48:38;;;;;;;2.07;1.83;;;;;;;;;;5036502;28;20250;-67
2022/12/26 00:51:05;;;;;;;1.00;1.00;;;;;;;;;;5042277;28;20223;-66
2022/12/26 00:53:32;;;;;;;1.70;1.40;;;;;;;;;;5034609;28;20218;-67
2022/12/26 00:56:01;;;;;;;2.33;1.75;;;;;;;;;;5033242;28;20515;-65
2022/12/26 00:58:28;;;;;;;1.50;1.40;;;;;;;;;;5039715;28;20358;-66
2022/12/26 01:00:56;;;;;;;1.10;1.10;;;;;;;;;;5035230;28;20728;-67
2022/12/26 01:03:23;;;;;;;2.77;1.20;;;;;;;;;;5049016;28;20274;-66
2022/12/26 01:05:51;;;;;;;1.10;1.10;;;;;;;;;;5032653;28;20262;-67
2022/12/26 01:08:19;;;;;;;3.10;1.10;;;;;;;;;;5032341;28;20289;-66
2022/12/26 01:10:47;;;;;;;1.17;1.17;;;;;;;;;;5044537;28;20325;-66
2022/12/26 01:13:15;;;;;;;1.30;1.17;;;;;;;;;;5040864;28;20703;-66
2022/12/26 01:15:48;;;;;;;4.60;1.50;;;;;;;;;;5047656;28;20211;-66
2022/12/26 01:18:15;;;;;;;2.10;1.20;;;;;;;;;;5044111;28;20207;-66
2022/12/26 01:20:42;;;;;;;2.00;1.53;;;;;;;;;;5048849;28;20204;-65
2022/12/26 01:23:09;;;;;;;3.20;1.30;;;;;;;;;;5030508;28;20250;-65
2022/12/26 01:25:36;;;;;;;1.27;1.27;;;;;;;;;;5038224;28;20238;-66
2022/12/26 01:28:03;;;;;;;0.90;0.90;;;;;;;;;;5032308;28;20224;-66
2022/12/26 01:30:31;;;;;;;1.33;1.20;;;;;;;;;;5033379;28;20644;-66
2022/12/26 01:32:58;;;;;;;1.97;1.20;;;;;;;;;;5030166;28;20219;-66
2022/12/26 01:35:25;;;;;;;1.23;1.13;;;;;;;;;;5031075;28;20209;-65
2022/12/26 01:37:52;;;;;;;4.43;1.47;;;;;;;;;;5029598;28;20220;-65
2022/12/26 01:40:20;;;;;;;2.10;1.33;;;;;;;;;;5038053;28;20261;-66
2022/12/26 01:42:47;;;;;;;1.60;1.40;;;;;;;;;;5040361;28;20200;-66
2022/12/26 01:45:25;;;;;;;1.37;1.27;;;;;;;;;;5034550;28;20217;-66
2022/12/26 01:47:55;;;;;;;1.40;1.20;;;;;;;;;;5031423;28;20220;-66
2022/12/26 01:50:32;;;;;;;1.50;1.40;;;;;;;;;;5042632;28;20650;-66
2022/12/26 01:53:00;;;;;;;0.93;0.93;;;;;;;;;;5044052;28;20236;-65
2022/12/26 01:55:28;;;;;;;1.10;1.10;;;;;;;;;;5034095;28;20228;-66
2022/12/26 01:57:57;;;;;;;1.40;1.40;;;;;;;;;;5029791;28;20671;-66
2022/12/26 02:00:24;;;;;;;1.47;1.37;;;;;;;;;;5029018;28;20220;-66
2022/12/26 02:05:37;;;;;;;1.20;1.20;;;;;;;;;;5029698;28;20200;-66
2022/12/26 02:08:06;;;;;;;1.57;1.40;;;;;;;;;;5029435;28;20227;-65
2022/12/26 02:10:36;;;;;;;1.30;1.20;;;;;;;;;;5042730;28;20238;-65
2022/12/26 02:13:04;;;;;;;1.37;1.17;;;;;;;;;;5036063;28;20270;-65
2022/12/26 02:15:32;;;;;;;1.07;1.07;;;;;;;;;;5044326;28;20207;-66
2022/12/26 02:17:59;;;;;;;2.43;1.37;;;;;;;;;;5036230;28;20260;-66
2022/12/26 02:20:27;;;;;;;1.23;1.23;;;;;;;;;;5033743;28;20215;-65
2022/12/26 02:23:09;;;;;;;0.93;0.93;;;;;;;;;;5045259;28;20878;-66
2022/12/26 02:25:51;;;;;;;1.70;1.40;;;;;;;;;;5035076;28;20667;-66
2022/12/26 02:28:32;;;;;;;1.00;1.00;;;;;;;;;;5042124;28;20249;-66
2022/12/26 02:31:02;;;;;;;1.70;1.17;;;;;;;;;;5041299;28;20227;-65
2022/12/26 02:33:36;;;;;;;1.20;1.20;;;;;;;;;;5035284;28;20212;-66
2022/12/26 02:36:19;;;;;;;1.20;1.10;;;;;;;;;;5035405;28;20199;-66
2022/12/26 02:38:52;;;;;;;1.63;1.10;;;;;;;;;;5036822;28;20207;-66
2022/12/26 02:41:25;;;;;;;0.80;0.77;;;;;;;;;;5043004;28;20255;-66
2022/12/26 02:43:58;;;;;;;1.17;1.13;;;;;;;;;;5029165;28;20732;-66
2022/12/26 02:49:21;;;;;;;1.10;1.10;;;;;;;;;;5031100;28;20319;-66
2022/12/26 03:14:20;;;;;;;1.00;1.00;;;;;;;;;;5042755;28;20241;-66
2022/12/26 03:19:59;;;;;;;1.00;1.00;;;;;;;;;;5011843;28;20220;-66
2022/12/26 03:22:31;;;;;;;1.17;1.17;;;;;;;;;;5040198;28;20234;-66
2022/12/26 03:27:45;;;;;;;1.33;0.87;;;;;;;;;;5046863;28;20212;-66
2022/12/26 03:32:57;;;;;;;1.07;1.07;;;;;;;;;;5034808;28;20609;-65
2022/12/26 03:35:26;;;;;;;1.93;0.90;;;;;;;;;;5032337;28;20216;-65
2022/12/26 03:37:56;;;;;;;0.90;0.80;;;;;;;;;;5032141;28;20318;-65
2022/12/26 04:19:42;;;;;;;1.43;1.10;;;;;;;;;;5039434;28;20323;-66
2022/12/26 04:44:29;;;;;;;2.60;0.93;;;;;;;;;;5043939;28;20219;-66
2022/12/26 04:46:57;;;;;;;2.40;0.83;;;;;;;;;;5038621;28;20203;-65
2022/12/26 04:52:10;;;;;;;0.67;0.67;;;;;;;;;;5030443;28;20338;-65
2022/12/26 04:54:37;;;;;;;0.80;0.80;;;;;;;;;;5034544;28;20639;-65
2022/12/26 04:57:06;;;;;;;0.70;0.70;;;;;;;;;;5045207;28;20212;-65
2022/12/26 04:59:33;;;;;;;0.70;0.70;;;;;;;;;;5034151;28;20489;-65
2022/12/26 05:10:18;;;;;;;0.80;0.80;;;;;;;;;;5035715;28;20227;-65
2022/12/26 05:12:47;;;;;;;1.03;1.03;;;;;;;;;;5039283;28;20231;-65
2022/12/26 05:15:14;;;;;;;0.63;0.63;;;;;;;;;;5032622;28;20639;-65
2022/12/26 05:28:46;;;;;;;0.90;0.90;;;;;;;;;;5049725;28;20206;-64
2022/12/26 05:31:14;;;;;;;4.83;0.80;;;;;;;;;;5036569;28;20232;-64
2022/12/26 05:36:26;;;;;;;0.70;0.70;;;;;;;;;;5036097;28;20206;-64
2022/12/26 05:38:54;;;;;;;1.00;0.87;;;;;;;;;;5036679;28;20247;-64
2022/12/26 05:41:22;;;;;;;5.37;0.83;;;;;;;;;;5038076;28;20251;-65
2022/12/26 05:43:50;;;;;;;0.70;0.70;;;;;;;;;;5047880;28;20273;-65
2022/12/26 05:46:17;;;;;;;1.23;1.13;;;;;;;;;;5037109;28;20207;-65
2022/12/26 05:48:44;;;;;;;1.17;1.07;;;;;;;;;;5029658;28;20261;-65
2022/12/26 05:51:11;;;;;;;1.20;1.10;;;;;;;;;;5039939;28;20278;-65
2022/12/26 05:53:38;;;;;;;2.53;0.90;;;;;;;;;;5047871;28;20224;-65
2022/12/26 05:56:06;;;;;;;1.40;1.30;;;;;;;;;;5030825;28;20224;-64
2022/12/26 05:58:33;;;;;;;1.23;1.13;;;;;;;;;;5039443;28;20602;-65
2022/12/26 06:01:09;;;;;;;0.70;0.70;;;;;;;;;;5035247;28;20645;-65
2022/12/26 06:03:36;;;;;;;0.70;0.70;;;;;;;;;;5049135;28;20230;-65
2022/12/26 06:06:03;;;;;;;1.00;1.00;;;;;;;;;;5035659;28;20254;-65
2022/12/26 06:08:30;;;;;;;1.27;1.10;;;;;;;;;;5040611;28;20270;-65
2022/12/26 06:10:57;;;;;;;0.90;0.90;;;;;;;;;;5039523;28;20292;-65
2022/12/26 06:13:24;;;;;;;1.70;1.60;;;;;;;;;;5035666;28;20258;-65
2022/12/26 06:15:51;;;;;;;1.20;1.10;;;;;;;;;;5034008;28;20216;-65
2022/12/26 06:18:20;;;;;;;1.80;1.20;;;;;;;;;;5030476;28;20217;-64
2022/12/26 06:20:47;;;;;;;1.13;1.10;;;;;;;;;;5035540;28;20728;-65
2022/12/26 06:23:14;;;;;;;0.80;0.80;;;;;;;;;;5047068;28;20249;-65
2022/12/26 06:25:41;;;;;;;1.30;1.10;;;;;;;;;;5045958;28;20211;-65
2022/12/26 06:28:08;;;;;;;1.97;1.30;;;;;;;;;;5030915;28;20360;-65
2022/12/26 06:30:35;;;;;;;2.77;1.00;;;;;;;;;;5032328;28;20227;-65
2022/12/26 06:33:02;;;;;;;0.90;0.90;;;;;;;;;;5040133;28;20228;-66
2022/12/26 06:35:30;;;;;;;1.42;1.33;;;;;;;;;;5029712;28;20551;-66
2022/12/26 06:37:57;;;;;;;1.73;1.50;;;;;;;;;;5032200;28;20682;-64
2022/12/26 06:40:24;;;;;;;1.40;1.30;;;;;;;;;;5045874;28;20204;-65
2022/12/26 06:42:51;;;;;;;1.00;1.00;;;;;;;;;;5039760;28;20216;-65
2022/12/26 06:45:18;;;;;;;1.00;1.00;;;;;;;;;;5036915;28;20207;-65
2022/12/26 06:47:45;;;;;;;1.10;1.10;;;;;;;;;;5032955;28;20208;-64
2022/12/26 06:50:13;;;;;;;5.23;0.93;;;;;;;;;;5037826;28;20295;-64
2022/12/26 06:52:41;;;;;;;2.10;1.00;;;;;;;;;;5034474;28;20236;-64
2022/12/26 06:55:08;;;;;;;3.00;1.00;;;;;;;;;;5038149;28;20700;-65
2022/12/26 06:57:35;;;;;;;1.07;1.00;;;;;;;;;;5038458;28;20235;-64
2022/12/26 07:00:03;;;;;;;0.83;0.83;;;;;;;;;;5040933;28;20792;-65
2022/12/26 07:02:30;;;;;;;1.03;0.90;;;;;;;;;;5040362;28;20266;-65
2022/12/26 07:04:57;;;;;;;1.03;0.97;;;;;;;;;;5039470;28;20215;-65
2022/12/26 07:07:24;;;;;;;1.17;1.07;;;;;;;;;;5041869;28;20253;-65
2022/12/26 07:09:53;;;;;;;0.90;0.90;;;;;;;;;;5041626;28;20199;-64
2022/12/26 07:12:20;;;;;;;2.20;0.67;;;;;;;;;;5038722;28;20255;-65
2022/12/26 07:14:47;;;;;;;2.33;1.23;;;;;;;;;;5042916;28;20713;-65
2022/12/26 07:17:15;;;;;;;2.17;1.03;;;;;;;;;;5036279;28;20638;-65
2022/12/26 07:19:42;;;;;;;2.10;1.20;;;;;;;;;;5042661;28;20538;-65
2022/12/26 07:22:09;;;;;;;1.03;1.03;;;;;;;;;;5039701;28;20203;-65
2022/12/26 07:24:36;;;;;;;1.30;1.10;;;;;;;;;;5041989;28;20207;-66
2022/12/26 07:27:04;;;;;;;2.73;0.87;;;;;;;;;;5040666;28;20658;-65
2022/12/26 07:29:32;;;;;;;1.37;1.00;;;;;;;;;;5040336;28;20238;-65
2022/12/26 07:31:59;;;;;;;0.93;0.93;;;;;;;;;;5040249;28;20223;-65
2022/12/26 07:34:26;;;;;;;0.80;0.80;;;;;;;;;;5042782;28;20245;-66
2022/12/26 07:36:53;;;;;;;1.30;1.10;;;;;;;;;;5041446;28;20294;-66
2022/12/26 07:39:20;;;;;;;2.20;1.00;;;;;;;;;;5041762;28;20214;-66
2022/12/26 07:41:59;;;;;;;0.70;0.70;;;;;;;;;;5040608;28;20208;-66
2022/12/26 07:44:29;;;;;;;0.97;0.97;;;;;;;;;;5039676;28;20220;-65
2022/12/26 07:46:56;;;;;;;6.33;1.00;;;;;;;;;;5041120;28;20292;-65
2022/12/26 07:49:24;;;;;;;1.10;0.93;;;;;;;;;;5038938;28;20632;-65
2022/12/26 07:51:51;;;;;;;0.60;0.60;;;;;;;;;;5035932;28;20663;-65
2022/12/26 07:54:18;;;;;;;1.33;0.93;;;;;;;;;;5037694;28;20269;-65
2022/12/26 07:56:45;;;;;;;2.53;1.07;;;;;;;;;;5037192;28;20226;-65
2022/12/26 07:59:14;;;;;;;1.10;1.00;;;;;;;;;;5039825;28;20697;-66
2022/12/26 08:01:43;;;;;;;1.00;1.00;;;;;;;;;;5041682;28;20273;-66
2022/12/26 08:04:10;;;;;;;0.70;0.70;;;;;;;;;;5040441;28;20212;-66
2022/12/26 08:06:37;;;;;;;0.90;0.90;;;;;;;;;;5039130;28;20208;-66
2022/12/26 08:09:04;;;;;;;1.00;1.00;;;;;;;;;;5040119;28;20204;-66
2022/12/26 08:11:33;;;;;;;0.80;0.80;;;;;;;;;;5032896;28;20742;-66
2022/12/26 08:14:00;;;;;;;0.97;0.97;;;;;;;;;;5034098;28;20228;-67
2022/12/26 08:16:27;;;;;;;0.93;0.93;;;;;;;;;;5042691;28;20219;-67
2022/12/26 08:18:55;;;;;;;1.13;1.03;;;;;;;;;;5039411;28;20243;-67
2022/12/26 08:21:22;;;;;;;1.73;0.83;;;;;;;;;;5044030;28;20199;-66
2022/12/26 08:23:49;;;;;;;0.73;0.73;;;;;;;;;;5032039;28;20211;-66
2022/12/26 08:26:21;;;;;;;1.40;1.30;;;;;;;;;;5041923;28;20697;-66
2022/12/26 08:28:48;;;;;;;1.20;0.73;;;;;;;;;;5036209;28;20607;-66
2022/12/26 08:31:15;;;;;;;0.93;0.93;;;;;;;;;;5030456;28;20212;-67
2022/12/26 08:33:42;;;;;;;1.67;1.03;;;;;;;;;;5036778;28;20632;-67
2022/12/26 08:36:12;;;;;;;1.40;1.00;;;;;;;;;;5033563;28;20318;-66
2022/12/26 08:38:40;;;;;;;2.53;1.03;;;;;;;;;;5031553;28;20583;-65
2022/12/26 08:41:07;;;;;;;1.00;0.87;;;;;;;;;;5041910;28;20210;-68
2022/12/26 08:43:34;;;;;;;1.50;1.40;;;;;;;;;;5050402;28;20277;-67
2022/12/26 08:46:01;;;;;;;1.73;0.90;;;;;;;;;;5050484;28;20207;-67
2022/12/26 08:48:29;;;;;;;2.87;0.83;;;;;;;;;;5048087;28;20207;-65
2022/12/26 08:50:57;;;;;;;1.47;1.00;;;;;;;;;;5034890;28;20266;-66
2022/12/26 08:53:25;;;;;;;1.10;1.10;;;;;;;;;;5047545;28;20243;-66
2022/12/26 08:55:52;;;;;;;1.00;1.00;;;;;;;;;;5028754;28;20323;-66
2022/12/26 08:58:19;;;;;;;1.60;0.90;;;;;;;;;;5036742;28;20585;-65
2022/12/26 09:00:47;;;;;;;1.53;1.40;;;;;;;;;;5044580;28;20245;-66
2022/12/26 09:03:14;;;;;;;1.07;1.07;;;;;;;;;;5049438;28;20261;-67
2022/12/26 09:05:41;;;;;;;0.77;0.77;;;;;;;;;;5049292;28;20200;-68
2022/12/26 09:08:08;;;;;;;2.10;1.20;;;;;;;;;;5049659;28;20204;-65
2022/12/26 09:10:37;;;;;;;1.33;1.27;;;;;;;;;;5040799;28;20273;-68
2022/12/26 09:13:04;;;;;;;1.00;1.00;;;;;;;;;;5041725;28;20281;-66
2022/12/26 09:15:31;;;;;;;1.20;1.20;;;;;;;;;;5029082;28;20208;-67
2022/12/26 09:17:58;;;;;;;0.70;0.70;;;;;;;;;;5037064;28;20693;-67
2022/12/26 09:20:25;;;;;;;0.97;0.97;;;;;;;;;;5046088;28;20261;-66
2022/12/26 09:22:53;;;;;;;1.33;1.33;;;;;;;;;;5036311;28;20250;-67
2022/12/26 09:25:20;;;;;;;1.03;1.03;;;;;;;;;;5029534;28;20266;-67
2022/12/26 09:27:52;;;;;;;1.00;1.00;;;;;;;;;;5031597;28;20204;-67
2022/12/26 09:30:20;;;;;;;0.87;0.87;;;;;;;;;;5029508;28;20297;-66
2022/12/26 09:32:47;;;;;;;1.33;1.23;;;;;;;;;;5034218;28;20306;-67
2022/12/26 09:35:14;;;;;;;0.80;0.80;;;;;;;;;;5030147;28;20262;-68
2022/12/26 09:37:41;;;;;;;1.57;0.97;;;;;;;;;;5042726;28;20208;-67
2022/12/26 09:40:08;;;;;;;3.47;0.87;;;;;;;;;;5047777;28;20219;-66
2022/12/26 09:42:40;;;;;;;0.90;0.90;;;;;;;;;;5046108;28;20241;-65
2022/12/26 09:45:14;;;;;;;1.00;1.00;;;;;;;;;;5031080;28;20299;-68
2022/12/26 09:47:45;;;;;;;1.20;0.87;;;;;;;;;;5029211;28;20211;-68
2022/12/26 09:50:13;;;;;;;0.97;0.80;;;;;;;;;;5031379;28;20273;-66
2022/12/26 09:52:43;;;;;;;2.63;0.93;;;;;;;;;;5033113;28;20323;-67
2022/12/26 09:55:27;;;;;;;0.93;0.90;;;;;;;;;;5029008;28;20580;-65
2022/12/26 09:57:57;;;;;;;1.63;1.53;;;;;;;;;;5031162;28;20901;-67
2022/12/26 10:00:27;;;;;;;1.50;0.90;;;;;;;;;;5026797;28;20244;-66
2022/12/26 10:02:55;;;;;;;1.60;0.80;;;;;;;;;;5042756;28;20869;-66
2022/12/26 10:05:23;;;;;;;1.10;1.00;;;;;;;;;;5037320;28;20216;-66
2022/12/26 10:07:54;;;;;;;0.83;0.83;;;;;;;;;;5029278;28;20215;-67
2022/12/26 10:10:23;;;;;;;0.80;0.80;;;;;;;;;;5028954;28;20251;-67
2022/12/26 10:12:55;;;;;;;1.43;1.00;;;;;;;;;;5028921;28;20286;-67
2022/12/26 10:15:30;;;;;;;0.70;0.70;;;;;;;;;;5036970;28;20259;-67
2022/12/26 10:18:01;;;;;;;0.93;0.80;;;;;;;;;;5048957;28;20584;-67
2022/12/26 10:20:33;;;;;;;0.97;0.70;;;;;;;;;;5033218;28;20223;-67
2022/12/26 10:23:05;;;;;;;0.80;0.80;;;;;;;;;;5028460;28;20258;-67
2022/12/26 10:25:37;;;;;;;0.90;0.90;;;;;;;;;;5046372;28;20554;-67
2022/12/26 10:28:04;;;;;;;0.83;0.83;;;;;;;;;;5033950;28;20613;-68
2022/12/26 10:30:35;;;;;;;1.37;1.00;;;;;;;;;;5033585;28;20209;-67
2022/12/26 10:33:05;;;;;;;1.07;1.07;;;;;;;;;;5042611;28;20227;-65
2022/12/26 10:35:34;;;;;;;0.70;0.70;;;;;;;;;;5048090;28;20214;-68
2022/12/26 10:38:05;;;;;;;0.97;0.97;;;;;;;;;;5028457;28;21040;-66
2022/12/26 10:40:36;;;;;;;0.70;0.70;;;;;;;;;;5035609;28;20295;-68
2022/12/26 10:43:12;;;;;;;0.93;0.93;;;;;;;;;;5042421;28;20247;-69
2022/12/26 10:45:44;;;;;;;0.63;0.63;;;;;;;;;;5047932;28;20207;-67
2022/12/26 10:48:13;;;;;;;0.70;0.70;;;;;;;;;;5028398;28;20616;-68
2022/12/26 10:50:44;;;;;;;0.67;0.67;;;;;;;;;;5038238;28;20203;-68
2022/12/26 10:53:13;;;;;;;0.50;0.50;;;;;;;;;;5041414;28;20220;-68
2022/12/26 10:55:40;;;;;;;0.50;0.50;;;;;;;;;;5034376;28;20227;-68
2022/12/26 10:58:12;;;;;;;0.67;0.50;;;;;;;;;;5032044;28;20220;-67
2022/12/26 11:00:40;;;;;;;0.70;0.70;;;;;;;;;;5028021;28;20208;-66
2022/12/26 11:03:08;;;;;;;0.60;0.60;;;;;;;;;;5042487;28;20208;-68
2022/12/26 11:05:37;;;;;;;0.47;0.47;;;;;;;;;;5028134;28;20219;-68
2022/12/26 11:08:08;;;;;;;0.60;0.60;;;;;;;;;;5027956;28;20597;-68
2022/12/26 11:10:35;;;;;;;0.40;0.40;;;;;;;;;;5034406;28;20239;-66
2022/12/26 11:13:05;;;;;;;5.40;0.80;;;;;;;;;;5038058;28;20232;-67
2022/12/26 11:15:33;;;;;;;0.80;0.80;;;;;;;;;;5031906;28;20815;-68
2022/12/26 11:18:10;;;;;;;0.57;0.57;;;;;;;;;;5032506;28;20216;-68
2022/12/26 11:20:37;;;;;;;0.60;0.60;;;;;;;;;;5027967;28;20212;-67
2022/12/26 11:23:14;;;;;;;0.60;0.60;;;;;;;;;;5029343;28;20216;-68
2022/12/26 11:25:48;;;;;;;0.60;0.60;;;;;;;;;;5030262;28;20318;-67
2022/12/26 11:28:20;;;;;;;0.60;0.60;;;;;;;;;;5048199;28;20285;-68
2022/12/26 11:30:48;;;;;;;0.57;0.40;;;;;;;;;;5044818;28;20207;-67
2022/12/26 11:33:22;;;;;;;0.60;0.60;;;;;;;;;;5029373;28;20294;-68
2022/12/26 11:35:50;;;;;;;0.40;0.40;;;;;;;;;;5033587;28;20212;-68
2022/12/26 11:43:44;;;;;;;0.97;0.83;;;;;;;;;;5031820;28;20203;-68
2022/12/26 11:46:11;;;;;;;3.17;0.80;;;;;;;;;;5031424;28;20205;-69
2022/12/26 11:48:40;;;;;;;0.63;0.63;;;;;;;;;;5038683;28;20796;-68
2022/12/26 11:51:07;;;;;;;0.53;0.53;;;;;;;;;;5051731;28;20222;-68
2022/12/26 11:53:35;;;;;;;0.60;0.60;;;;;;;;;;5031745;28;20240;-68
2022/12/26 11:56:05;;;;;;;1.50;0.70;;;;;;;;;;5038795;28;20311;-68
2022/12/26 11:58:33;;;;;;;3.50;0.60;;;;;;;;;;5042591;28;20236;-69
2022/12/26 12:01:05;;;;;;;1.13;0.63;;;;;;;;;;5030903;28;20671;-68
2022/12/26 12:03:35;;;;;;;1.02;1.02;;;;;;;;;;5036267;28;20204;-68
2022/12/26 12:06:08;;;;;;;0.75;0.75;;;;;;;;;;5049863;28;20291;-68
2022/12/26 12:08:41;;;;;;;3.20;1.20;;;;;;;;;;5034484;28;21050;-68
2022/12/26 12:11:17;;;;;;;2.70;0.87;;;;;;;;;;5040035;28;20240;-69
2022/12/26 12:13:56;;;;;;;1.30;1.00;;;;;;;;;;5037094;28;20247;-69
2022/12/26 12:16:31;;;;;;;0.80;0.80;;;;;;;;;;5049371;28;20207;-68
2022/12/26 12:19:05;;;;;;;1.33;1.03;;;;;;;;;;5037954;28;20297;-68
2022/12/26 12:21:37;;;;;;;0.77;0.77;;;;;;;;;;5036545;28;20324;-66
2022/12/26 12:24:22;;;;;;;14.10;5.93;;;;;;;;;;5030345;28;20251;-67
2022/12/26 12:26:55;;;;;;;14.73;6.63;;;;;;;;;;5041360;28;20248;-68
2022/12/26 12:29:33;;;;;;;2.03;1.50;;;;;;;;;;5043026;28;20581;-68
2022/12/26 12:32:08;;;;;;;0.50;0.50;;;;;;;;;;5031052;28;20235;-68
2022/12/26 12:34:42;;;;;;;0.80;0.80;;;;;;;;;;5034122;28;20224;-68
2022/12/26 12:37:18;;;;;;;1.80;0.60;;;;;;;;;;5040162;28;20298;-66
2022/12/26 12:39:50;;;;;;;0.43;0.43;;;;;;;;;;5031908;28;20270;-69
2022/12/26 12:42:30;;;;;;;0.40;0.40;;;;;;;;;;5033732;28;20215;-68
2022/12/26 12:45:06;;;;;;;0.57;0.57;;;;;;;;;;5039243;28;20258;-66
2022/12/26 12:47:40;;;;;;;0.57;0.57;;;;;;;;;;5039381;28;20211;-68
2022/12/26 12:50:11;;;;;;;0.50;0.50;;;;;;;;;;5041229;28;20199;-68
2022/12/26 12:52:43;;;;;;;0.57;0.57;;;;;;;;;;5035941;28;20215;-68
2022/12/26 12:55:21;;;;;;;2.00;0.50;;;;;;;;;;5039930;28;20238;-69
2022/12/26 12:57:51;;;;;;;0.83;0.40;;;;;;;;;;5039232;28;20212;-68
2022/12/26 13:00:20;;;;;;;0.40;0.40;;;;;;;;;;5036866;28;20223;-68
2022/12/26 13:02:51;;;;;;;1.97;0.53;;;;;;;;;;5034806;28;20231;-68
2022/12/26 13:05:25;;;;;;;1.40;0.50;;;;;;;;;;5040146;28;20209;-69
2022/12/26 13:07:56;;;;;;;0.40;0.40;;;;;;;;;;5035811;28;20219;-69
2022/12/26 13:10:24;;;;;;;0.30;0.30;;;;;;;;;;5030341;28;20619;-68
2022/12/26 13:12:52;;;;;;;0.30;0.30;;;;;;;;;;5038691;28;20200;-68
2022/12/26 13:15:27;;;;;;;0.40;0.40;;;;;;;;;;5032708;28;20234;-68
2022/12/26 13:17:58;;;;;;;0.37;0.37;;;;;;;;;;5033433;28;20196;-68
2022/12/26 13:20:29;;;;;;;0.30;0.30;;;;;;;;;;5034586;28;20215;-66
2022/12/26 13:25:48;;;;;;;0.40;0.40;;;;;;;;;;5033615;28;20303;-68
2022/12/26 13:28:18;;;;;;;0.30;0.30;;;;;;;;;;5041149;28;20272;-67
2022/12/26 13:30:49;;;;;;;0.40;0.40;;;;;;;;;;5031367;28;20215;-66
2022/12/26 13:33:16;;;;;;;0.50;0.50;;;;;;;;;;5034322;28;20219;-68
2022/12/26 13:35:54;;;;;;;0.40;0.40;;;;;;;;;;5035253;28;20746;-67
2022/12/26 13:38:23;;;;;;;3.23;1.27;;;;;;;;;;5035085;28;20208;-69
2022/12/26 13:40:53;;;;;;;0.50;0.47;;;;;;;;;;5035011;28;20258;-68
2022/12/26 13:46:27;;;;;;;0.20;0.20;;;;;;;;;;5030887;28;20333;-68
2022/12/26 13:48:59;;;;;;;0.60;0.60;;;;;;;;;;5030086;28;20258;-68
2022/12/26 13:51:44;;;;;;;0.30;0.30;;;;;;;;;;5040053;28;20208;-67
2022/12/26 13:54:12;;;;;;;0.57;0.40;;;;;;;;;;5039397;28;20224;-68
2022/12/26 13:57:02;;;;;;;0.20;0.20;;;;;;;;;;5036120;28;20230;-68
2022/12/26 13:59:32;;;;;;;1.77;0.50;;;;;;;;;;5016493;28;20216;-69
2022/12/26 14:02:15;;;;;;;0.30;0.30;;;;;;;;;;5034712;28;20208;-69
2022/12/26 14:04:49;;;;;;;0.53;0.50;;;;;;;;;;5039186;28;20204;-69
2022/12/26 14:07:22;;;;;;;0.50;0.50;;;;;;;;;;5032373;28;20216;-70
2022/12/26 14:09:53;;;;;;;0.33;0.30;;;;;;;;;;5029873;28;20568;-69
2022/12/26 14:12:27;;;;;;;0.70;0.70;;;;;;;;;;5032293;28;20236;-70
2022/12/26 14:14:59;;;;;;;0.80;0.80;;;;;;;;;;5034412;28;20258;-71
2022/12/26 14:17:33;;;;;;;0.70;0.70;;;;;;;;;;5038282;28;20207;-69
2022/12/26 14:20:08;;;;;;;0.53;0.53;;;;;;;;;;5044242;28;20211;-69
2022/12/26 14:22:40;;;;;;;0.50;0.50;;;;;;;;;;5035970;28;20579;-70
2022/12/26 14:25:13;;;;;;;0.40;0.40;;;;;;;;;;5035922;28;20204;-70
2022/12/26 14:27:44;;;;;;;0.33;0.33;;;;;;;;;;5036648;28;20207;-69
2022/12/26 14:30:20;;;;;;;5.07;1.60;;;;;;;;;;5033462;28;20208;-70
2022/12/26 14:32:53;;;;;;;0.53;0.53;;;;;;;;;;5028533;28;20207;-68
2022/12/26 14:35:29;;;;;;;1.33;1.00;;;;;;;;;;5037043;28;20228;-67
2022/12/26 14:38:02;;;;;;;0.50;0.50;;;;;;;;;;5032949;28;20728;-70
2022/12/26 14:40:30;;;;;;;1.17;1.17;;;;;;;;;;5036850;28;20270;-72
2022/12/26 14:43:09;;;;;;;0.57;0.57;;;;;;;;;;5039072;28;20204;-68
2022/12/26 14:45:44;;;;;;;0.50;0.50;;;;;;;;;;5043754;28;20217;-68
2022/12/26 14:48:29;;;;;;;2.03;0.70;;;;;;;;;;5047373;28;20261;-70
2022/12/26 14:51:17;;;;;;;0.40;0.40;;;;;;;;;;5043736;28;20212;-68
2022/12/26 14:53:45;;;;;;;1.00;0.30;;;;;;;;;;5034720;28;20745;-69
2022/12/26 14:56:27;;;;;;;2.10;0.40;;;;;;;;;;5030011;28;20235;-72
2022/12/26 14:59:14;;;;;;;0.90;0.90;;;;;;;;;;5029980;28;20298;-69
2022/12/26 15:01:50;;;;;;;0.70;0.70;;;;;;;;;;5027507;28;20274;-69
2022/12/26 15:04:24;;;;;;;0.60;0.60;;;;;;;;;;5044582;28;20614;-69
2022/12/26 15:06:57;;;;;;;1.90;0.53;;;;;;;;;;5040995;28;20276;-72
2022/12/26 15:09:34;;;;;;;0.90;0.63;;;;;;;;;;5037304;28;20203;-70
2022/12/26 15:12:05;;;;;;;17.97;10.07;;;;;;;;;;5041369;28;20251;-72
2022/12/26 15:14:43;;;;;;;1.93;1.83;;;;;;;;;;5038584;28;20231;-70
2022/12/26 15:17:16;;;;;;;1.40;0.63;;;;;;;;;;5030462;28;20219;-71
2022/12/26 15:20:04;;;;;;;0.70;0.70;;;;;;;;;;5036954;28;20252;-74
2022/12/26 15:22:49;;;;;;;0.63;0.63;;;;;;;;;;5031366;28;20205;-69
2022/12/26 15:25:31;;;;;;;3.63;2.03;;;;;;;;;;5037405;28;20242;-68
2022/12/26 15:28:15;;;;;;;1.23;1.23;;;;;;;;;;5031565;28;20574;-68
2022/12/26 15:30:51;;;;;;;1.20;1.00;;;;;;;;;;5043071;28;20747;-69
2022/12/26 15:33:24;;;;;;;0.90;0.80;;;;;;;;;;5038193;28;20280;-68
2022/12/26 15:35:53;;;;;;;2.00;0.70;;;;;;;;;;5039606;28;20223;-68
2022/12/26 15:38:23;;;;;;;2.63;1.00;;;;;;;;;;5044215;28;20273;-69
2022/12/26 15:40:56;;;;;;;1.50;0.80;;;;;;;;;;5048135;28;20219;-69
2022/12/26 15:43:35;;;;;;;0.53;0.40;;;;;;;;;;5031557;28;20208;-69
2022/12/26 15:46:08;;;;;;;2.47;0.60;;;;;;;;;;5041732;28;20222;-68
2022/12/26 15:48:44;;;;;;;0.70;0.47;;;;;;;;;;5033145;28;20303;-69
2022/12/26 15:51:13;;;;;;;0.67;0.67;;;;;;;;;;5040282;28;20212;-69
2022/12/26 15:53:47;;;;;;;1.20;0.50;;;;;;;;;;5039569;28;20266;-69
2022/12/26 15:56:25;;;;;;;0.60;0.60;;;;;;;;;;5038191;28;20224;-69
2022/12/26 15:59:10;;;;;;;0.33;0.33;;;;;;;;;;5038382;28;20262;-69
2022/12/26 16:01:41;;;;;;;2.83;0.40;;;;;;;;;;5039238;28;20208;-69
2022/12/26 16:04:13;;;;;;;0.20;0.20;;;;;;;;;;5038294;28;20207;-70
2022/12/26 16:06:49;;;;;;;0.33;0.33;;;;;;;;;;5040562;28;20242;-68
2022/12/26 16:09:24;;;;;;;0.20;0.20;;;;;;;;;;5040923;28;20326;-70
2022/12/26 16:11:54;;;;;;;0.93;0.80;;;;;;;;;;5038248;28;20657;-68
2022/12/26 16:14:26;;;;;;;1.40;0.60;;;;;;;;;;5041218;28;20258;-67
2022/12/26 16:16:53;;;;;;;0.67;0.33;;;;;;;;;;5043029;28;20286;-67
2022/12/26 16:19:22;;;;;;;0.47;0.37;;;;;;;;;;5038631;28;20212;-68
2022/12/26 16:24:38;;;;;;;0.37;0.37;;;;;;;;;;5031588;28;20211;-66
2022/12/26 16:27:06;;;;;;;0.37;0.37;;;;;;;;;;5031173;28;20207;-64
2022/12/26 16:29:33;;;;;;;133.77;57.07;;;;;;;;;;5040875;28;20204;-64
2022/12/26 16:32:02;;;;;;;20.43;9.90;;;;;;;;;;5031552;28;20211;-67
2022/12/26 16:34:33;;;;;;;2.93;2.30;;;;;;;;;;5035562;28;20204;-66
2022/12/26 16:37:00;;;;;;;0.83;0.77;;;;;;;;;;5036077;28;20216;-65
2022/12/26 16:39:27;;;;;;;0.40;0.40;;;;;;;;;;5048090;28;20211;-65
2022/12/26 16:41:58;;;;;;;0.20;0.20;;;;;;;;;;5042737;28;20670;-65
2022/12/26 16:44:29;;;;;;;0.67;0.20;;;;;;;;;;5046262;28;20310;-67
2022/12/26 16:46:56;;;;;;;0.60;0.60;;;;;;;;;;5035504;28;20209;-63
2022/12/26 16:49:26;;;;;;;0.40;0.40;;;;;;;;;;5037726;28;20681;-66
2022/12/26 16:51:55;;;;;;;1.70;1.30;;;;;;;;;;5035317;28;20686;-60
2022/12/26 16:54:27;;;;;;;59.00;24.70;;;;;;;;;;5040351;28;20713;-67
2022/12/26 16:56:58;;;;;;;20.33;8.93;;;;;;;;;;5035595;28;20275;-65
2022/12/26 16:59:27;;;;;;;1.90;1.80;;;;;;;;;;5046435;28;20224;-66
2022/12/26 17:01:55;;;;;;;2.37;2.00;;;;;;;;;;5034400;28;20343;-64
2022/12/26 17:04:24;;;;;;;0.80;0.80;;;;;;;;;;5035244;28;20653;-65
2022/12/26 17:06:53;;;;;;;1.10;1.10;;;;;;;;;;5041353;28;20205;-65
2022/12/26 17:09:23;;;;;;;0.80;0.80;;;;;;;;;;5047897;28;20314;-66
2022/12/26 17:11:53;;;;;;;0.73;0.73;;;;;;;;;;5048227;28;20243;-65
2022/12/26 17:14:22;;;;;;;0.57;0.57;;;;;;;;;;5035458;28;20220;-66
2022/12/26 17:16:57;;;;;;;1.20;0.27;;;;;;;;;;5033660;28;20219;-67
2022/12/26 17:19:27;;;;;;;0.57;0.47;;;;;;;;;;5036296;28;20208;-65